createdAt,value
2019-04-22T00:00:55.710Z,7.70
2019-04-22T00:03:33.944Z,7.70
2019-04-22T00:06:19.086Z,7.70
2019-04-22T00:08:58.760Z,7.50
2019-04-22T00:11:28.863Z,7.60
2019-04-22T00:16:38.877Z,7.60
2019-04-22T00:19:15.369Z,7.60
2019-04-22T00:21:43.796Z,7.60
2019-04-22T00:24:10.650Z,7.70
2019-04-22T00:26:44.010Z,7.70
2019-04-22T00:29:37.326Z,7.70
2019-04-22T00:32:16.539Z,7.60
2019-04-22T00:34:48.394Z,7.60
2019-04-22T00:37:23.489Z,7.60
2019-04-22T00:39:53.929Z,7.50
2019-04-22T00:42:28.823Z,7.60
2019-04-22T00:47:36.064Z,7.60
2019-04-22T00:52:37.159Z,7.80
2019-04-22T00:55:11.981Z,7.80
2019-04-22T00:57:38.806Z,7.70
2019-04-22T01:00:14.619Z,7.80
2019-04-22T01:02:49.574Z,7.80
2019-04-22T01:05:16.491Z,7.90
2019-04-22T01:07:49.578Z,7.90
2019-04-22T01:10:25.582Z,7.70
2019-04-22T01:12:57.282Z,7.60
2019-04-22T01:15:30.558Z,7.70
2019-04-22T01:17:57.825Z,7.70
2019-04-22T01:23:05.808Z,7.80
2019-04-22T01:25:29.462Z,7.80
2019-04-22T01:28:01.267Z,7.80
2019-04-22T01:30:28.774Z,7.60
2019-04-22T01:32:53.875Z,7.60
2019-04-22T01:35:37.623Z,7.50
2019-04-22T01:38:16.142Z,7.50
2019-04-22T01:43:39.154Z,7.60
2019-04-22T01:46:02.700Z,7.70
2019-04-22T01:48:33.060Z,7.70
2019-04-22T01:51:00.902Z,7.70
2019-04-22T01:53:43.345Z,7.80
2019-04-22T01:56:07.258Z,7.80
2019-04-22T01:58:36.640Z,7.80
2019-04-22T02:01:13.607Z,7.80
2019-04-22T02:03:46.813Z,7.70
2019-04-22T02:06:24.629Z,7.70
2019-04-22T02:08:52.821Z,7.70
2019-04-22T02:11:29.280Z,7.70
2019-04-22T02:13:56.571Z,7.60
2019-04-22T02:17:21.025Z,7.70
2019-04-22T02:19:48.146Z,7.70
2019-04-22T02:22:27.567Z,7.60
2019-04-22T02:27:27.392Z,7.60
2019-04-22T02:29:52.297Z,7.60
2019-04-22T02:35:11.162Z,7.60
2019-04-22T02:37:35.359Z,7.60
2019-04-22T02:40:09.211Z,7.60
2019-04-22T02:42:35.093Z,7.70
2019-04-22T02:45:07.219Z,7.80
2019-04-22T02:47:47.561Z,7.90
2019-04-22T02:50:12.668Z,8.00
2019-04-22T02:52:42.682Z,8.10
2019-04-22T02:57:48.468Z,8.10
2019-04-22T03:03:11.356Z,7.90
2019-04-22T03:05:36.538Z,7.90
2019-04-22T03:08:09.896Z,7.90
2019-04-22T03:13:18.969Z,7.90
2019-04-22T03:15:42.515Z,7.90
2019-04-22T03:18:21.727Z,7.80
2019-04-22T03:20:50.309Z,7.80
2019-04-22T03:23:25.479Z,7.80
2019-04-22T03:28:30.956Z,7.70
2019-04-22T03:37:09.564Z,7.70
2019-04-22T03:39:31.943Z,7.60
2019-04-22T03:44:23.475Z,7.60
2019-04-22T03:46:53.151Z,7.60
2019-04-22T03:49:32.245Z,7.60
2019-04-22T03:51:56.740Z,7.70
2019-04-22T03:59:33.751Z,7.80
2019-04-22T04:02:02.073Z,7.80
2019-04-22T04:12:14.304Z,7.90
2019-04-22T04:19:58.655Z,8.30
2019-04-22T04:22:33.912Z,8.30
2019-04-22T04:25:19.602Z,8.40
2019-04-22T04:40:11.723Z,8.70
2019-04-22T04:42:42.699Z,8.60
2019-04-22T04:50:29.656Z,8.70
2019-04-22T04:58:13.031Z,8.50
2019-04-22T05:00:40.106Z,8.60
2019-04-22T05:03:13.798Z,8.60
2019-04-22T05:05:26.676Z,8.70
2019-04-22T05:10:44.770Z,8.80
2019-04-22T05:13:01.757Z,8.90
2019-04-22T05:15:32.994Z,8.90
2019-04-22T05:18:06.025Z,9.00
2019-04-22T05:23:07.033Z,9.00
2019-04-22T05:25:33.719Z,9.20
2019-04-22T05:28:11.816Z,9.30
2019-04-22T05:30:45.820Z,9.40
2019-04-22T05:33:14.335Z,9.40
2019-04-22T05:35:46.255Z,9.40
2019-04-22T05:38:30.801Z,9.50
2019-04-22T05:40:50.168Z,9.60
2019-04-22T05:43:32.922Z,9.70
2019-04-22T05:45:58.946Z,9.70
2019-04-22T05:48:33.091Z,9.80
2019-04-22T05:51:07.806Z,9.90
2019-04-22T05:53:37.217Z,9.90
2019-04-22T05:56:13.991Z,10.00
2019-04-22T05:58:46.471Z,10.10
2019-04-22T06:03:52.842Z,10.40
2019-04-22T06:08:51.239Z,10.60
2019-04-22T06:11:27.075Z,10.60
2019-04-22T06:13:56.075Z,10.60
2019-04-22T06:16:34.582Z,10.50
2019-04-22T06:19:07.683Z,10.40
2019-04-22T06:21:38.338Z,10.40
2019-04-22T06:24:16.631Z,10.50
2019-04-22T06:29:15.314Z,10.60
2019-04-22T06:34:27.044Z,10.80
2019-04-22T06:39:30.830Z,10.80
2019-04-22T06:42:04.851Z,11.00
2019-04-22T06:44:29.676Z,11.20
2019-04-22T06:46:56.436Z,11.30
2019-04-22T06:49:35.950Z,11.40
2019-04-22T06:52:08.079Z,11.50
2019-04-22T06:54:45.440Z,11.50
2019-04-22T06:57:06.199Z,11.50
2019-04-22T06:59:50.101Z,11.50
2019-04-22T07:02:16.539Z,11.60
2019-04-22T07:04:53.828Z,11.60
2019-04-22T07:07:20.158Z,11.60
2019-04-22T07:12:24.369Z,11.70
2019-04-22T07:14:54.614Z,11.80
2019-04-22T07:17:39.340Z,11.90
2019-04-22T07:19:58.411Z,12.10
2019-04-22T07:22:45.603Z,12.20
2019-04-22T07:25:03.119Z,12.20
2019-04-22T07:27:34.762Z,12.30
2019-04-22T07:32:58.079Z,12.40
2019-04-22T07:35:19.386Z,12.40
2019-04-22T07:37:43.614Z,12.50
2019-04-22T07:40:22.606Z,12.70
2019-04-22T07:42:49.360Z,12.90
2019-04-22T07:45:25.396Z,13.00
2019-04-22T07:48:06.092Z,13.00
2019-04-22T07:50:37.824Z,13.00
2019-04-22T07:52:56.970Z,13.10
2019-04-22T07:55:32.631Z,13.20
2019-04-22T07:58:05.330Z,13.50
2019-04-22T08:00:38.554Z,13.70
2019-04-22T08:03:11.825Z,13.90
2019-04-22T08:05:51.511Z,14.10
2019-04-22T08:08:23.098Z,14.20
2019-04-22T08:10:52.268Z,14.30
2019-04-22T08:13:17.230Z,14.30
2019-04-22T08:15:55.421Z,14.30
2019-04-22T08:18:28.378Z,14.50
2019-04-22T08:20:58.321Z,14.60
2019-04-22T08:23:31.770Z,14.70
2019-04-22T08:26:01.116Z,14.70
2019-04-22T08:28:41.234Z,14.70
2019-04-22T08:31:07.684Z,14.80
2019-04-22T08:33:44.521Z,14.90
2019-04-22T08:38:55.536Z,15.00
2019-04-22T08:41:30.166Z,15.00
2019-04-22T08:43:59.354Z,15.10
2019-04-22T08:46:34.172Z,15.10
2019-04-22T08:56:43.668Z,14.90
2019-04-22T08:59:12.525Z,14.80
2019-04-22T09:01:39.177Z,14.90
2019-04-22T09:04:11.632Z,15.00
2019-04-22T09:07:02.446Z,15.00
2019-04-22T09:09:22.559Z,15.20
2019-04-22T09:11:57.818Z,15.40
2019-04-22T09:14:26.707Z,15.50
2019-04-22T09:16:48.708Z,15.70
2019-04-22T09:19:24.215Z,15.70
2019-04-22T09:22:03.415Z,15.80
2019-04-22T09:24:29.523Z,15.70
2019-04-22T09:27:04.048Z,15.50
2019-04-22T09:29:41.154Z,15.40
2019-04-22T09:32:11.331Z,15.40
2019-04-22T09:34:40.181Z,15.50
2019-04-22T09:37:20.736Z,15.60
2019-04-22T09:39:51.630Z,15.60
2019-04-22T09:42:21.484Z,15.60
2019-04-22T09:44:57.221Z,15.60
2019-04-22T09:47:29.924Z,15.60
2019-04-22T09:50:01.542Z,15.60
2019-04-22T09:52:28.736Z,15.60
2019-04-22T09:55:06.118Z,15.60
2019-04-22T09:57:31.409Z,15.60
2019-04-22T10:02:40.686Z,15.80
2019-04-22T10:05:13.747Z,16.10
2019-04-22T10:07:43.249Z,16.30
2019-04-22T10:10:15.031Z,16.50
2019-04-22T10:12:42.877Z,16.60
2019-04-22T10:15:18.615Z,16.60
2019-04-22T10:17:54.490Z,16.70
2019-04-22T10:20:29.510Z,16.80
2019-04-22T10:22:59.215Z,16.80
2019-04-22T10:25:23.402Z,16.70
2019-04-22T10:28:08.998Z,16.60
2019-04-22T10:30:43.909Z,16.50
2019-04-22T10:33:04.586Z,16.50
2019-04-22T10:35:19.262Z,16.50
2019-04-22T10:37:48.108Z,16.60
2019-04-22T10:40:29.927Z,16.70
2019-04-22T10:43:01.245Z,16.80
2019-04-22T10:45:32.355Z,16.70
2019-04-22T10:48:04.000Z,16.50
2019-04-22T10:50:41.090Z,16.50
2019-04-22T10:53:13.432Z,16.40
2019-04-22T10:55:45.677Z,16.50
2019-04-22T10:58:17.113Z,16.70
2019-04-22T11:00:49.908Z,16.80
2019-04-22T11:03:20.457Z,16.90
2019-04-22T11:05:53.933Z,17.00
2019-04-22T11:08:32.662Z,17.10
2019-04-22T11:11:12.426Z,17.20
2019-04-22T11:13:28.371Z,17.40
2019-04-22T11:16:00.432Z,17.40
2019-04-22T11:18:31.698Z,17.30
2019-04-22T11:21:02.593Z,17.30
2019-04-22T11:23:34.362Z,17.20
2019-04-22T11:26:06.250Z,17.10
2019-04-22T11:28:38.058Z,17.00
2019-04-22T11:31:10.375Z,17.00
2019-04-22T11:33:42.679Z,17.00
2019-04-22T11:36:13.704Z,17.00
2019-04-22T11:38:49.048Z,17.20
2019-04-22T11:41:16.865Z,17.50
2019-04-22T11:43:47.471Z,17.80
2019-04-22T11:46:18.421Z,17.90
2019-04-22T11:48:49.924Z,17.80
2019-04-22T11:51:22.140Z,17.80
2019-04-22T11:53:52.894Z,17.90
2019-04-22T11:56:23.356Z,18.20
2019-04-22T11:58:55.228Z,18.60
2019-04-22T12:01:26.681Z,18.70
2019-04-22T12:03:57.994Z,18.50
2019-04-22T12:06:28.486Z,18.10
2019-04-22T12:08:59.592Z,17.50
2019-04-22T12:11:30.608Z,17.10
2019-04-22T12:14:02.130Z,16.90
2019-04-22T12:16:33.116Z,16.70
2019-04-22T12:19:04.935Z,16.80
2019-04-22T12:21:37.111Z,17.10
2019-04-22T12:24:09.097Z,18.20
2019-04-22T12:26:40.139Z,18.80
2019-04-22T12:29:11.166Z,19.50
2019-04-22T12:31:42.035Z,20.80
2019-04-22T12:34:13.276Z,22.20
2019-04-22T12:36:44.868Z,22.50
2019-04-22T12:39:15.829Z,22.00
2019-04-22T12:41:46.530Z,21.20
2019-04-22T12:44:18.067Z,20.40
2019-04-22T12:46:50.180Z,20.40
2019-04-22T12:49:22.473Z,21.30
2019-04-22T12:51:54.696Z,22.00
2019-04-22T12:54:26.797Z,23.80
2019-04-22T12:56:57.787Z,25.70
2019-04-22T12:59:29.798Z,27.80
2019-04-22T13:02:00.713Z,29.70
2019-04-22T13:04:32.261Z,31.70
2019-04-22T13:07:03.916Z,33.30
2019-04-22T13:09:38.978Z,33.20
2019-04-22T13:12:10.986Z,30.90
2019-04-22T13:14:43.385Z,29.00
2019-04-22T13:17:15.309Z,27.90
2019-04-22T13:19:47.543Z,28.60
2019-04-22T13:22:19.080Z,29.80
2019-04-22T13:24:49.927Z,31.20
2019-04-22T13:27:21.225Z,33.20
2019-04-22T13:29:53.029Z,34.70
2019-04-22T13:32:25.019Z,35.00
2019-04-22T13:34:59.939Z,34.50
2019-04-22T13:37:28.616Z,34.70
2019-04-22T13:40:01.281Z,33.80
2019-04-22T13:42:33.408Z,31.70
2019-04-22T13:45:04.910Z,29.40
2019-04-22T13:47:55.707Z,27.70
2019-04-22T13:50:47.611Z,27.30
2019-04-22T13:53:21.960Z,28.00
2019-04-22T13:57:58.404Z,30.90
2019-04-22T14:00:24.940Z,31.00
2019-04-22T14:03:34.302Z,30.60
2019-04-22T14:06:06.760Z,29.30
2019-04-22T14:08:37.664Z,26.60
2019-04-22T14:11:17.057Z,24.70
2019-04-22T14:13:41.722Z,23.40
2019-04-22T14:16:13.297Z,22.40
2019-04-22T14:18:45.936Z,21.60
2019-04-22T14:21:18.855Z,20.90
2019-04-22T14:23:50.936Z,20.40
2019-04-22T14:26:23.102Z,20.10
2019-04-22T14:28:55.606Z,20.00
2019-04-22T14:31:26.763Z,20.10
2019-04-22T14:34:01.732Z,20.90
2019-04-22T14:36:30.721Z,21.90
2019-04-22T14:39:02.014Z,22.70
2019-04-22T14:41:49.023Z,23.00
2019-04-22T14:47:09.230Z,25.10
2019-04-22T14:49:40.243Z,26.90
2019-04-22T14:52:13.335Z,27.60
2019-04-22T14:54:31.025Z,28.00
2019-04-22T14:56:48.648Z,28.90
2019-04-22T14:59:19.136Z,29.30
2019-04-22T15:01:49.840Z,29.30
2019-04-22T15:04:21.242Z,29.20
2019-04-22T15:06:52.732Z,28.70
2019-04-22T15:09:24.096Z,28.40
2019-04-22T15:12:08.337Z,28.00
2019-04-22T15:14:27.686Z,27.40
2019-04-22T15:17:20.832Z,27.40
2019-04-22T15:20:05.910Z,27.40
2019-04-22T15:22:36.912Z,27.50
2019-04-22T15:25:08.369Z,27.30
2019-04-22T15:27:41.559Z,27.30
2019-04-22T15:30:13.386Z,27.10
2019-04-22T15:32:45.524Z,26.20
2019-04-22T15:35:17.494Z,25.60
2019-04-22T15:37:48.998Z,25.10
2019-04-22T15:40:20.644Z,24.30
2019-04-22T15:42:52.886Z,23.80
2019-04-22T15:45:24.363Z,23.20
2019-04-22T15:47:57.909Z,22.90
2019-04-22T15:50:28.729Z,22.90
2019-04-22T15:53:01.156Z,23.40
2019-04-22T15:55:32.532Z,23.50
2019-04-22T15:58:05.836Z,23.40
2019-04-22T16:00:49.119Z,23.00
2019-04-22T16:03:12.356Z,22.80
2019-04-22T16:05:44.133Z,22.50
2019-04-22T16:08:15.083Z,21.80
2019-04-22T16:10:46.528Z,21.30
2019-04-22T16:13:22.425Z,20.70
2019-04-22T16:15:49.801Z,20.10
2019-04-22T16:18:22.278Z,19.40
2019-04-22T16:20:54.311Z,19.00
2019-04-22T16:23:46.772Z,18.80
2019-04-22T16:26:36.086Z,18.50
2019-04-22T16:29:09.381Z,18.30
2019-04-22T16:31:40.597Z,18.10
2019-04-22T16:34:13.181Z,18.00
2019-04-22T16:36:45.191Z,17.90
2019-04-22T16:39:16.141Z,17.80
2019-04-22T16:41:48.519Z,17.70
2019-04-22T16:44:20.573Z,17.60
2019-04-22T16:46:51.942Z,17.40
2019-04-22T16:49:25.450Z,17.40
2019-04-22T16:51:56.399Z,17.20
2019-04-22T16:54:27.926Z,17.20
2019-04-22T16:56:59.790Z,17.20
2019-04-22T16:59:30.760Z,17.20
2019-04-22T17:02:12.782Z,17.10
2019-04-22T17:05:02.012Z,17.20
2019-04-22T17:07:34.131Z,17.20
2019-04-22T17:10:08.249Z,17.10
2019-04-22T17:12:48.726Z,17.00
2019-04-22T17:15:14.308Z,17.00
2019-04-22T17:17:45.305Z,16.90
2019-04-22T17:20:17.432Z,16.90
2019-04-22T17:22:49.309Z,16.80
2019-04-22T17:25:20.551Z,16.70
2019-04-22T17:27:52.003Z,16.60
2019-04-22T17:30:24.284Z,16.60
2019-04-22T17:32:56.691Z,16.60
2019-04-22T17:35:28.714Z,16.50
2019-04-22T17:38:09.247Z,16.30
2019-04-22T17:40:49.590Z,16.30
2019-04-22T17:43:36.213Z,16.30
2019-04-22T17:45:59.917Z,16.30
2019-04-22T17:48:50.625Z,16.10
2019-04-22T17:51:29.843Z,16.00
2019-04-22T17:53:59.865Z,15.90
2019-04-22T17:56:27.655Z,15.90
2019-04-22T17:58:58.796Z,15.80
2019-04-22T18:01:29.664Z,15.80
2019-04-22T18:03:49.713Z,15.80
2019-04-22T18:06:45.388Z,15.70
2019-04-22T18:09:05.343Z,15.70
2019-04-22T18:11:46.256Z,15.60
2019-04-22T18:14:39.943Z,15.60
2019-04-22T18:16:49.958Z,15.50
2019-04-22T18:19:21.071Z,15.50
2019-04-22T18:21:50.214Z,15.40
2019-04-22T18:24:13.014Z,15.40
2019-04-22T18:26:57.806Z,15.20
2019-04-22T18:29:28.347Z,15.20
2019-04-22T18:31:53.894Z,15.20
2019-04-22T18:34:25.670Z,15.10
2019-04-22T18:37:05.824Z,15.00
2019-04-22T18:39:42.458Z,15.00
2019-04-22T18:42:07.511Z,15.00
2019-04-22T18:44:49.425Z,15.00
2019-04-22T18:47:11.708Z,15.00
2019-04-22T18:49:46.010Z,14.90
2019-04-22T18:52:48.027Z,14.90
2019-04-22T18:55:38.734Z,14.90
2019-04-22T18:58:14.523Z,14.90
2019-04-22T19:00:36.597Z,14.90
2019-04-22T19:03:15.947Z,14.90
2019-04-22T19:06:11.746Z,14.90
2019-04-22T19:08:31.567Z,14.90
2019-04-22T19:11:20.971Z,14.80
2019-04-22T19:14:00.714Z,14.70
2019-04-22T19:16:25.558Z,14.60
2019-04-22T19:18:50.442Z,14.50
2019-04-22T19:21:15.051Z,14.50
2019-04-22T19:23:53.991Z,14.40
2019-04-22T19:26:40.988Z,14.40
2019-04-22T19:28:58.780Z,14.40
2019-04-22T19:31:29.909Z,14.20
2019-04-22T19:34:03.327Z,14.10
2019-04-22T19:36:43.446Z,13.90
2019-04-22T19:39:08.003Z,13.80
2019-04-22T19:41:42.273Z,13.70
2019-04-22T19:44:13.164Z,13.60
2019-04-22T19:46:55.653Z,13.60
2019-04-22T19:49:29.050Z,13.40
2019-04-22T19:52:02.045Z,13.40
2019-04-22T19:54:24.424Z,13.30
2019-04-22T19:56:45.708Z,13.20
2019-04-22T19:59:23.559Z,13.20
2019-04-22T20:02:15.901Z,13.20
2019-04-22T20:05:06.417Z,13.20
2019-04-22T20:07:40.622Z,13.10
2019-04-22T20:10:16.226Z,13.00
2019-04-22T20:12:42.483Z,12.90
2019-04-22T20:15:19.908Z,12.80
2019-04-22T20:18:15.625Z,12.70
2019-04-22T20:20:31.687Z,12.60
2019-04-22T20:22:57.636Z,12.50
2019-04-22T20:25:30.641Z,12.50
2019-04-22T20:28:08.435Z,12.40
2019-04-22T20:30:39.974Z,12.40
2019-04-22T20:33:01.887Z,12.30
2019-04-22T20:35:43.517Z,12.30
2019-04-22T20:38:16.348Z,12.20
2019-04-22T20:40:42.657Z,12.20
2019-04-22T20:43:22.139Z,12.30
2019-04-22T20:45:51.271Z,12.30
2019-04-22T20:48:10.346Z,12.30
2019-04-22T20:50:52.936Z,12.40
2019-04-22T20:53:34.432Z,12.40
2019-04-22T20:56:01.052Z,12.40
2019-04-22T20:58:34.320Z,12.30
2019-04-22T21:00:55.732Z,12.30
2019-04-22T21:03:26.661Z,12.30
2019-04-22T21:06:06.003Z,12.30
2019-04-22T21:08:42.363Z,12.30
2019-04-22T21:11:07.854Z,12.30
2019-04-22T21:13:39.761Z,12.30
2019-04-22T21:16:21.737Z,12.30
2019-04-22T21:18:44.223Z,12.10
2019-04-22T21:21:19.663Z,12.00
2019-04-22T21:23:45.836Z,11.90
2019-04-22T21:26:24.305Z,11.90
2019-04-22T21:28:53.756Z,11.80
2019-04-22T21:31:33.729Z,11.80
2019-04-22T21:33:56.138Z,11.70
2019-04-22T21:36:38.077Z,11.70
2019-04-22T21:39:03.846Z,11.60
2019-04-22T21:41:37.501Z,11.50
2019-04-22T21:44:10.320Z,11.50
2019-04-22T21:46:47.882Z,11.40
2019-04-22T21:49:21.691Z,11.30
2019-04-22T21:51:53.562Z,11.30
2019-04-22T21:54:26.982Z,11.30
2019-04-22T21:57:19.248Z,11.20
2019-04-22T21:59:43.184Z,11.20
2019-04-22T22:02:24.894Z,11.30
2019-04-22T22:04:48.948Z,11.20
2019-04-22T22:07:12.960Z,11.10
2019-04-22T22:09:54.227Z,11.00
2019-04-22T22:12:35.035Z,11.00
2019-04-22T22:15:04.035Z,10.90
2019-04-22T22:17:31.298Z,10.80
2019-04-22T22:20:03.508Z,10.80
2019-04-22T22:25:17.802Z,10.80
2019-04-22T22:27:40.693Z,10.70
2019-04-22T22:32:49.814Z,10.70
2019-04-22T22:35:20.559Z,10.60
2019-04-22T22:37:50.604Z,10.60
2019-04-22T22:40:09.295Z,10.60
2019-04-22T22:42:40.426Z,10.60
2019-04-22T22:45:17.477Z,10.60
2019-04-22T22:48:09.670Z,10.60
2019-04-22T22:50:34.736Z,10.50
2019-04-22T22:53:17.220Z,10.50
2019-04-22T22:55:34.435Z,10.70
2019-04-22T22:58:14.295Z,10.60
2019-04-22T23:00:40.922Z,10.70
2019-04-22T23:05:54.985Z,10.60
2019-04-22T23:08:20.379Z,10.50
2019-04-22T23:11:05.653Z,10.50
2019-04-22T23:13:26.038Z,10.50
2019-04-22T23:15:50.895Z,10.40
2019-04-22T23:18:07.819Z,10.30
2019-04-22T23:20:45.142Z,10.30
2019-04-22T23:23:36.442Z,10.30
2019-04-22T23:26:07.364Z,10.40
2019-04-22T23:28:43.509Z,10.30
2019-04-22T23:31:23.618Z,10.20
2019-04-22T23:34:06.728Z,10.20
2019-04-22T23:37:07.283Z,10.20
2019-04-22T23:39:40.342Z,10.20
2019-04-22T23:42:15.933Z,10.10
2019-04-22T23:44:42.229Z,10.00
2019-04-22T23:47:21.174Z,10.00
2019-04-22T23:50:03.752Z,10.00
2019-04-22T23:52:35.931Z,9.90
2019-04-22T23:55:18.720Z,9.90
2019-04-22T23:57:55.743Z,9.80
